createdAt,value
2024-04-11T00:08:20.536Z,2.90
2024-04-11T00:13:22.443Z,2.63
2024-04-11T00:18:26.315Z,2.80
2024-04-11T00:23:28.352Z,3.03
2024-04-11T00:28:30.929Z,3.28
2024-04-11T00:33:32.918Z,3.05
2024-04-11T00:38:34.997Z,2.72
2024-04-11T00:43:36.912Z,2.97
2024-04-11T00:48:40.860Z,3.08
2024-04-11T00:53:43.771Z,2.65
2024-04-11T00:58:45.712Z,2.85
2024-04-11T01:03:48.132Z,2.53
2024-04-11T01:08:52.444Z,3.92
2024-04-11T01:13:54.637Z,3.00
2024-04-11T01:18:57.648Z,2.55
2024-04-11T01:24:01.464Z,2.72
2024-04-11T01:29:03.776Z,2.42
2024-04-11T01:34:08.640Z,2.28
2024-04-11T01:39:12.881Z,1.88
2024-04-11T01:44:15.426Z,2.58
2024-04-11T01:49:18.160Z,2.60
2024-04-11T01:54:20.768Z,2.70
2024-04-11T01:59:22.831Z,2.83
2024-04-11T02:04:24.909Z,2.40
2024-04-11T02:09:32.831Z,2.20
2024-04-11T02:14:34.829Z,2.40
2024-04-11T02:19:38.577Z,2.50
2024-04-11T02:24:40.462Z,2.85
2024-04-11T02:29:42.356Z,2.65
2024-04-11T02:34:44.498Z,2.53
2024-04-11T02:39:47.169Z,3.25
2024-04-11T02:44:52.445Z,3.30
2024-04-11T02:49:55.330Z,2.40
2024-04-11T02:54:57.175Z,2.60
2024-04-11T03:00:00.517Z,2.25
2024-04-11T03:05:02.890Z,2.65
2024-04-11T03:10:05.021Z,2.42
2024-04-11T03:15:10.670Z,2.45
2024-04-11T03:20:12.830Z,3.00
2024-04-11T03:25:14.787Z,2.97
2024-04-11T03:30:16.730Z,2.33
2024-04-11T03:35:18.550Z,2.50
2024-04-11T03:40:21.036Z,3.08
2024-04-11T03:45:28.090Z,3.05
2024-04-11T03:55:46.107Z,2.60
2024-04-11T04:00:49.520Z,2.90
2024-04-11T04:05:52.438Z,2.80
2024-04-11T04:10:54.286Z,3.00
2024-04-11T04:15:59.176Z,2.88
2024-04-11T04:21:01.638Z,3.50
2024-04-11T04:26:09.584Z,2.80
2024-04-11T04:31:18.294Z,2.88
2024-04-11T04:36:28.676Z,2.67
2024-04-11T04:41:31.039Z,3.90
2024-04-11T04:46:34.116Z,2.65
2024-04-11T04:51:37.827Z,2.85
2024-04-11T04:56:43.892Z,3.22
2024-04-11T05:01:47.016Z,3.35
2024-04-11T05:06:50.897Z,2.65
2024-04-11T05:11:52.954Z,2.90
2024-04-11T05:16:54.846Z,3.40
2024-04-11T05:21:56.709Z,4.10
2024-04-11T05:27:00.056Z,3.60
2024-04-11T05:32:03.260Z,2.20
2024-04-11T05:37:07.190Z,2.53
2024-04-11T05:42:10.816Z,2.15
2024-04-11T05:47:12.870Z,2.22
2024-04-11T05:52:14.813Z,2.70
2024-04-11T05:57:16.715Z,2.25
2024-04-11T06:02:19.461Z,2.40
2024-04-11T06:07:22.485Z,2.33
2024-04-11T06:12:24.393Z,2.00
2024-04-11T06:17:29.331Z,2.35
2024-04-11T06:22:34.162Z,2.03
2024-04-11T06:27:37.886Z,1.85
2024-04-11T06:32:39.876Z,2.10
2024-04-11T06:37:45.560Z,1.77
2024-04-11T06:42:51.447Z,2.22
2024-04-11T06:47:57.316Z,2.17
2024-04-11T06:53:00.477Z,2.03
2024-04-11T06:58:07.602Z,2.25
2024-04-11T07:03:18.380Z,2.53
2024-04-11T07:08:30.702Z,2.60
2024-04-11T07:13:34.517Z,2.20
2024-04-11T07:18:46.693Z,1.95
2024-04-11T07:23:55.092Z,2.28
2024-04-11T07:29:01.509Z,2.22
2024-04-11T07:34:07.487Z,2.35
2024-04-11T07:39:15.177Z,2.57
2024-04-11T07:44:19.955Z,2.47
2024-04-11T07:49:25.821Z,2.72
2024-04-11T07:54:37.464Z,1.42
2024-04-11T07:59:48.183Z,1.63
2024-04-11T08:04:50.686Z,1.33
2024-04-11T08:09:57.477Z,1.02
2024-04-11T08:14:59.786Z,0.80
2024-04-11T08:20:01.933Z,0.40
2024-04-11T08:25:04.055Z,0.50
2024-04-11T08:30:13.373Z,0.40
2024-04-11T08:35:18.939Z,0.35
2024-04-11T08:40:21.759Z,0.43
2024-04-11T08:45:28.132Z,0.40
2024-04-11T08:50:31.508Z,0.43
2024-04-11T08:55:33.898Z,0.60
2024-04-11T09:00:41.624Z,0.43
2024-04-11T09:05:47.815Z,0.43
2024-04-11T09:10:50.421Z,0.40
2024-04-11T09:16:02.032Z,0.40
2024-04-11T09:21:07.665Z,0.50
2024-04-11T09:26:11.907Z,0.50
2024-04-11T09:31:13.843Z,0.47
2024-04-11T09:36:18.512Z,0.77
2024-04-11T09:41:26.300Z,0.50
2024-04-11T09:46:30.555Z,0.25
2024-04-11T09:51:36.368Z,0.47
2024-04-11T09:56:39.363Z,0.40
2024-04-11T10:01:42.310Z,0.40
2024-04-11T10:06:45.590Z,0.80
2024-04-11T10:11:49.057Z,0.45
2024-04-11T10:17:02.782Z,0.45
2024-04-11T10:22:06.950Z,0.55
2024-04-11T10:27:15.335Z,0.55
2024-04-11T10:32:28.854Z,0.70
2024-04-11T10:37:35.020Z,0.80
2024-04-11T10:42:39.598Z,0.60
2024-04-11T10:47:43.815Z,0.73
2024-04-11T10:52:48.722Z,0.90
2024-04-11T10:58:09.994Z,0.75
2024-04-11T11:03:15.852Z,0.82
2024-04-11T11:08:18.102Z,0.50
2024-04-11T11:13:20.231Z,0.60
2024-04-11T11:18:25.966Z,0.70
2024-04-11T11:23:35.352Z,0.85
2024-04-11T11:28:37.383Z,0.63
2024-04-11T11:33:43.158Z,0.45
2024-04-11T11:38:49.963Z,0.40
2024-04-11T11:43:55.709Z,0.52
2024-04-11T11:48:58.375Z,0.50
2024-04-11T11:54:13.907Z,0.40
2024-04-11T11:59:21.029Z,0.73
2024-04-11T12:04:23.684Z,0.50
2024-04-11T12:09:33.092Z,0.50
2024-04-11T12:14:36.393Z,0.60
2024-04-11T12:19:38.477Z,0.55
2024-04-11T12:24:41.110Z,0.40
2024-04-11T12:29:43.767Z,0.43
2024-04-11T12:34:47.366Z,0.60
2024-04-11T12:39:56.403Z,0.52
2024-04-11T12:45:02.198Z,0.70
2024-04-11T12:50:06.518Z,0.55
2024-04-11T12:55:09.681Z,0.50
2024-04-11T13:00:30.789Z,0.50
2024-04-11T13:05:42.338Z,0.50
2024-04-11T13:10:47.094Z,0.60
2024-04-11T13:15:50.616Z,0.40
2024-04-11T13:20:53.653Z,0.60
2024-04-11T13:25:59.348Z,0.50
2024-04-11T13:31:01.478Z,0.40
2024-04-11T13:36:13.697Z,0.30
2024-04-11T13:41:34.301Z,0.32
2024-04-11T13:46:37.059Z,0.40
2024-04-11T13:51:46.162Z,0.45
2024-04-11T13:57:01.093Z,0.50
2024-04-11T14:02:10.918Z,0.40
2024-04-11T14:07:12.881Z,0.50
2024-04-11T14:12:18.190Z,0.40
2024-04-11T14:17:28.480Z,0.40
2024-04-11T14:22:31.412Z,0.52
2024-04-11T14:27:33.382Z,0.50
2024-04-11T14:32:53.700Z,0.50
2024-04-11T14:38:09.021Z,0.60
2024-04-11T14:43:22.398Z,0.50
2024-04-11T14:48:35.267Z,0.40
2024-04-11T14:53:40.201Z,0.50
2024-04-11T14:58:49.177Z,0.40
2024-04-11T15:03:58.572Z,0.57
2024-04-11T15:09:22.006Z,0.90
2024-04-11T15:14:25.766Z,0.40
2024-04-11T15:19:28.519Z,0.65
2024-04-11T15:24:30.349Z,0.40
2024-04-11T15:29:49.115Z,0.60
2024-04-11T15:35:08.401Z,0.50
2024-04-11T15:40:23.689Z,0.40
2024-04-11T15:45:31.187Z,0.70
2024-04-11T15:50:37.817Z,0.45
2024-04-11T15:55:53.660Z,0.60
2024-04-11T16:00:55.626Z,0.20
2024-04-11T16:06:03.522Z,0.40
2024-04-11T16:11:05.619Z,0.60
2024-04-11T16:16:11.383Z,0.40
2024-04-11T16:21:16.647Z,0.40
2024-04-11T16:26:20.668Z,0.50
2024-04-11T16:31:29.090Z,0.70
2024-04-11T16:36:32.206Z,0.50
2024-04-11T16:41:40.398Z,0.50
2024-04-11T16:46:42.908Z,0.75
2024-04-11T16:51:44.930Z,0.50
2024-04-11T16:56:50.215Z,0.43
2024-04-11T17:01:52.563Z,0.43
2024-04-11T17:06:58.571Z,0.60
2024-04-11T17:12:05.132Z,0.38
2024-04-11T17:17:30.362Z,0.50
2024-04-11T17:22:51.227Z,0.40
2024-04-11T17:28:00.804Z,0.65
2024-04-11T17:33:11.907Z,0.65
2024-04-11T17:38:25.694Z,0.40
2024-04-11T17:43:29.225Z,0.57
2024-04-11T17:48:42.855Z,0.52
2024-04-11T17:53:48.766Z,0.50
2024-04-11T17:58:54.136Z,0.75
2024-04-11T18:03:59.878Z,0.65
2024-04-11T18:09:11.298Z,0.60
2024-04-11T18:14:14.644Z,0.47
2024-04-11T18:19:16.452Z,0.40
2024-04-11T18:24:20.313Z,0.52
2024-04-11T18:29:24.797Z,0.52
2024-04-11T18:34:27.036Z,0.85
2024-04-11T18:39:34.125Z,0.80
2024-04-11T18:44:51.769Z,0.80
2024-04-11T18:49:54.222Z,0.70
2024-04-11T18:54:56.885Z,0.60
2024-04-11T19:00:05.618Z,1.00
2024-04-11T19:05:12.387Z,1.00
2024-04-11T19:10:15.970Z,1.02
2024-04-11T19:15:19.811Z,1.27
2024-04-11T19:20:23.778Z,1.50
2024-04-11T19:25:29.464Z,1.20
2024-04-11T19:30:38.610Z,1.17
2024-04-11T19:35:50.764Z,1.35
2024-04-11T19:40:57.971Z,1.00
2024-04-11T19:46:09.607Z,1.33
2024-04-11T19:51:18.791Z,1.20
2024-04-11T19:56:25.559Z,1.17
2024-04-11T20:01:39.536Z,0.90
2024-04-11T20:06:48.514Z,1.10
2024-04-11T20:11:51.062Z,1.20
2024-04-11T20:16:59.204Z,1.10
2024-04-11T20:22:06.842Z,1.98
2024-04-11T20:27:10.747Z,1.30
2024-04-11T20:32:13.905Z,1.15
2024-04-11T20:37:19.043Z,1.58
2024-04-11T20:42:39.536Z,1.05
2024-04-11T20:47:56.288Z,1.00
2024-04-11T20:53:16.935Z,0.90
2024-04-11T20:58:37.630Z,0.80
2024-04-11T21:03:58.194Z,0.77
2024-04-11T21:09:19.134Z,0.90
2024-04-11T21:14:39.864Z,0.88
2024-04-11T21:20:00.441Z,0.80
2024-04-11T21:25:20.833Z,0.63
2024-04-11T21:30:41.518Z,0.90
2024-04-11T21:35:51.532Z,0.90
2024-04-11T21:41:12.489Z,0.95
2024-04-11T21:46:17.340Z,0.80
2024-04-11T21:51:20.851Z,0.90
2024-04-11T21:56:22.663Z,1.00
2024-04-11T22:01:44.925Z,1.13
2024-04-11T22:06:57.289Z,0.80
2024-04-11T22:12:02.457Z,0.75
2024-04-11T22:17:07.340Z,0.93
2024-04-11T22:22:14.627Z,0.70
2024-04-11T22:27:18.581Z,0.70
2024-04-11T22:32:22.891Z,0.80
2024-04-11T22:37:25.437Z,0.82
2024-04-11T22:42:34.831Z,0.98
2024-04-11T22:47:41.662Z,0.77
2024-04-11T22:52:44.201Z,0.80
2024-04-11T22:57:54.018Z,1.00
2024-04-11T23:03:11.234Z,0.90
2024-04-11T23:08:13.909Z,1.23
2024-04-11T23:13:17.727Z,1.20
2024-04-11T23:18:21.740Z,0.85
2024-04-11T23:23:27.590Z,0.90
2024-04-11T23:28:30.091Z,0.90
2024-04-11T23:33:34.687Z,1.00
2024-04-11T23:38:41.978Z,1.27
2024-04-11T23:43:48.122Z,1.30
2024-04-11T23:48:50.612Z,1.50
2024-04-11T23:53:54.565Z,1.00
2024-04-11T23:58:56.566Z,1.25
